KGVT/GVT METAR and TAF weather

Enter ICAO airport designator
Station Type Date Time Source
KGVT METAR 2019/02/20 06:50 UTC NOAA

KGVT 200650Z AUTO 00000KT 10SM OVC005 05/04 A2992 RMK AO2 LTG DSNT E


Station Type Date Time Source
KGVT Decoded METAR 2019/02/20 06:50 UTC NOAA

Greenville / Majors, TX, United States (KGVT) 33-04N 096-04W
Feb 20, 2019 - 01:50 AM EST / 2019.02.20 0650 UTC
Wind: Calm:0
Visibility: 10 mile(s):0
Sky conditions: overcast
Weather: Lightning observed
Temperature: 41 F (5 C)
Dew Point: 39 F (4 C)
Relative Humidity: 93%
Pressure (altimeter): 29.92 in. Hg (1013 hPa)
ob: KGVT 200650Z AUTO 00000KT 10SM OVC005 05/04 A2992 RMK AO2 LTG DSNT E
cycle: 7

Station Type Date Time Source
KGVT TAF UTC NOAA

Error!


Example: see airport list